sensor_id;sensor_type;location;lat;lon;timestamp;pressure;altitude;pressure_sealevel;temperature;humidity
59588;BME280;45412;54.472;18.464;2023-09-07T00:00:59;100971.34;;;17.18;100.00
59588;BME280;45412;54.472;18.464;2023-09-07T00:03:47;100971.55;;;17.18;100.00
59588;BME280;45412;54.472;18.464;2023-09-07T00:06:33;100972.73;;;17.18;100.00
59588;BME280;45412;54.472;18.464;2023-09-07T00:09:21;100976.51;;;17.19;100.00
59588;BME280;45412;54.472;18.464;2023-09-07T00:12:08;100974.20;;;17.21;100.00
59588;BME280;45412;54.472;18.464;2023-09-07T00:14:55;100975.67;;;17.22;100.00
59588;BME280;45412;54.472;18.464;2023-09-07T00:17:41;100982.17;;;17.22;100.00
59588;BME280;45412;54.472;18.464;2023-09-07T00:20:28;100985.02;;;17.22;100.00
59588;BME280;45412;54.472;18.464;2023-09-07T00:23:15;100983.64;;;17.23;100.00
59588;BME280;45412;54.472;18.464;2023-09-07T00:26:02;100983.65;;;17.25;100.00
59588;BME280;45412;54.472;18.464;2023-09-07T00:28:48;100983.25;;;17.26;100.00
59588;BME280;45412;54.472;18.464;2023-09-07T00:31:35;100984.87;;;17.26;100.00
59588;BME280;45412;54.472;18.464;2023-09-07T00:34:22;100982.34;;;17.24;100.00
59588;BME280;45412;54.472;18.464;2023-09-07T00:37:09;100982.42;;;17.23;100.00
59588;BME280;45412;54.472;18.464;2023-09-07T00:39:55;100984.23;;;17.21;100.00
59588;BME280;45412;54.472;18.464;2023-09-07T00:42:42;100984.14;;;17.19;100.00
59588;BME280;45412;54.472;18.464;2023-09-07T00:45:29;100982.46;;;17.20;100.00
59588;BME280;45412;54.472;18.464;2023-09-07T00:48:16;100981.77;;;17.22;100.00
59588;BME280;45412;54.472;18.464;2023-09-07T00:51:03;100981.48;;;17.25;100.00
59588;BME280;45412;54.472;18.464;2023-09-07T00:53:49;100980.11;;;17.27;100.00
59588;BME280;45412;54.472;18.464;2023-09-07T00:56:36;100981.95;;;17.28;100.00
59588;BME280;45412;54.472;18.464;2023-09-07T00:59:23;100980.52;;;17.30;100.00
59588;BME280;45412;54.472;18.464;2023-09-07T01:02:09;100984.58;;;17.34;100.00
59588;BME280;45412;54.472;18.464;2023-09-07T01:04:56;100982.04;;;17.37;100.00
59588;BME280;45412;54.472;18.464;2023-09-07T01:07:53;100983.21;;;17.38;100.00
59588;BME280;45412;54.472;18.464;2023-09-07T01:10:40;100989.20;;;17.39;100.00
59588;BME280;45412;54.472;18.464;2023-09-07T01:13:26;100989.79;;;17.40;100.00
59588;BME280;45412;54.472;18.464;2023-09-07T01:16:13;100989.47;;;17.42;100.00
59588;BME280;45412;54.472;18.464;2023-09-07T01:19:01;100987.47;;;17.44;100.00
59588;BME280;45412;54.472;18.464;2023-09-07T01:21:48;100987.39;;;17.47;100.00
59588;BME280;45412;54.472;18.464;2023-09-07T01:24:37;100977.36;;;17.45;100.00
59588;BME280;45412;54.472;18.464;2023-09-07T01:27:24;100989.24;;;17.54;100.00
59588;BME280;45412;54.472;18.464;2023-09-07T01:30:11;100988.65;;;17.59;100.00
59588;BME280;45412;54.472;18.464;2023-09-07T01:32:57;100988.36;;;17.63;100.00
59588;BME280;45412;54.472;18.464;2023-09-07T01:35:44;100982.41;;;17.66;100.00
59588;BME280;45412;54.472;18.464;2023-09-07T01:38:31;100990.69;;;17.71;100.00
59588;BME280;45412;54.472;18.464;2023-09-07T01:41:18;100991.13;;;17.76;100.00
59588;BME280;45412;54.472;18.464;2023-09-07T01:44:04;100991.15;;;17.80;100.00
59588;BME280;45412;54.472;18.464;2023-09-07T01:46:51;100994.78;;;17.83;100.00
59588;BME280;45412;54.472;18.464;2023-09-07T01:49:37;100984.96;;;17.85;100.00
59588;BME280;45412;54.472;18.464;2023-09-07T01:52:23;100995.80;;;17.92;100.00
59588;BME280;45412;54.472;18.464;2023-09-07T01:55:10;100994.76;;;17.95;100.00
59588;BME280;45412;54.472;18.464;2023-09-07T01:57:57;100995.29;;;17.99;100.00
59588;BME280;45412;54.472;18.464;2023-09-07T02:00:43;100996.73;;;18.01;100.00
59588;BME280;45412;54.472;18.464;2023-09-07T02:03:29;100991.90;;;17.99;100.00
59588;BME280;45412;54.472;18.464;2023-09-07T02:06:16;100996.95;;;18.04;100.00
59588;BME280;45412;54.472;18.464;2023-09-07T02:09:02;100999.00;;;18.08;100.00
59588;BME280;45412;54.472;18.464;2023-09-07T02:11:50;100998.30;;;18.08;100.00
59588;BME280;45412;54.472;18.464;2023-09-07T02:14:37;101002.10;;;18.09;100.00
59588;BME280;45412;54.472;18.464;2023-09-07T02:17:23;101001.95;;;18.09;100.00
59588;BME280;45412;54.472;18.464;2023-09-07T02:20:11;101004.23;;;18.08;100.00
59588;BME280;45412;54.472;18.464;2023-09-07T02:22:59;101004.88;;;18.08;100.00
59588;BME280;45412;54.472;18.464;2023-09-07T02:25:46;101007.92;;;18.09;100.00
59588;BME280;45412;54.472;18.464;2023-09-07T02:28:32;101006.94;;;18.05;100.00
59588;BME280;45412;54.472;18.464;2023-09-07T02:31:20;101007.56;;;18.00;100.00
59588;BME280;45412;54.472;18.464;2023-09-07T02:34:07;101009.55;;;17.97;100.00
59588;BME280;45412;54.472;18.464;2023-09-07T02:36:53;101008.45;;;17.93;100.00
59588;BME280;45412;54.472;18.464;2023-09-07T02:39:40;101000.55;;;17.87;100.00
59588;BME280;45412;54.472;18.464;2023-09-07T02:42:27;101005.69;;;17.84;100.00
59588;BME280;45412;54.472;18.464;2023-09-07T02:45:14;101005.17;;;17.80;100.00
59588;BME280;45412;54.472;18.464;2023-09-07T02:48:01;101003.42;;;17.75;100.00
59588;BME280;45412;54.472;18.464;2023-09-07T02:50:49;100999.50;;;17.69;100.00
59588;BME280;45412;54.472;18.464;2023-09-07T02:53:36;101001.02;;;17.66;100.00
59588;BME280;45412;54.472;18.464;2023-09-07T02:56:23;101000.28;;;17.61;100.00
59588;BME280;45412;54.472;18.464;2023-09-07T02:59:09;100999.89;;;17.59;100.00
59588;BME280;45412;54.472;18.464;2023-09-07T03:01:55;100999.36;;;17.57;100.00
59588;BME280;45412;54.472;18.464;2023-09-07T03:04:42;100998.77;;;17.56;100.00
59588;BME280;45412;54.472;18.464;2023-09-07T03:07:33;100995.48;;;17.52;100.00
59588;BME280;45412;54.472;18.464;2023-09-07T03:10:20;100999.34;;;17.48;100.00
59588;BME280;45412;54.472;18.464;2023-09-07T03:13:07;100996.11;;;17.44;100.00
59588;BME280;45412;54.472;18.464;2023-09-07T03:15:54;100996.28;;;17.42;100.00
59588;BME280;45412;54.472;18.464;2023-09-07T03:18:42;100996.64;;;17.40;100.00
59588;BME280;45412;54.472;18.464;2023-09-07T03:21:29;100997.40;;;17.37;100.00
59588;BME280;45412;54.472;18.464;2023-09-07T03:24:16;100997.91;;;17.35;100.00
59588;BME280;45412;54.472;18.464;2023-09-07T03:27:03;100997.06;;;17.35;100.00
59588;BME280;45412;54.472;18.464;2023-09-07T03:29:50;100999.70;;;17.34;100.00
59588;BME280;45412;54.472;18.464;2023-09-07T03:32:38;100999.95;;;17.31;100.00
59588;BME280;45412;54.472;18.464;2023-09-07T03:35:25;101000.39;;;17.27;100.00
59588;BME280;45412;54.472;18.464;2023-09-07T03:38:11;100998.05;;;17.23;100.00
59588;BME280;45412;54.472;18.464;2023-09-07T03:40:58;101000.45;;;17.17;100.00
59588;BME280;45412;54.472;18.464;2023-09-07T03:43:44;101001.35;;;17.16;100.00
59588;BME280;45412;54.472;18.464;2023-09-07T03:46:31;101002.80;;;17.07;100.00
59588;BME280;45412;54.472;18.464;2023-09-07T03:49:17;101009.06;;;17.06;100.00
59588;BME280;45412;54.472;18.464;2023-09-07T03:52:05;101005.05;;;17.02;100.00
59588;BME280;45412;54.472;18.464;2023-09-07T03:54:54;101005.58;;;17.00;100.00
59588;BME280;45412;54.472;18.464;2023-09-07T03:57:42;101003.86;;;17.04;100.00
59588;BME280;45412;54.472;18.464;2023-09-07T04:00:29;101003.32;;;17.06;100.00
59588;BME280;45412;54.472;18.464;2023-09-07T04:03:16;101004.27;;;17.07;100.00
59588;BME280;45412;54.472;18.464;2023-09-07T04:06:03;101002.00;;;17.08;100.00
59588;BME280;45412;54.472;18.464;2023-09-07T04:08:50;101005.59;;;17.10;100.00
59588;BME280;45412;54.472;18.464;2023-09-07T04:11:37;101006.48;;;17.13;100.00
59588;BME280;45412;54.472;18.464;2023-09-07T04:14:23;101005.34;;;17.15;100.00
59588;BME280;45412;54.472;18.464;2023-09-07T04:17:10;101008.60;;;17.19;100.00
59588;BME280;45412;54.472;18.464;2023-09-07T04:19:56;101008.36;;;17.22;100.00
59588;BME280;45412;54.472;18.464;2023-09-07T04:22:43;101009.15;;;17.23;100.00
59588;BME280;45412;54.472;18.464;2023-09-07T04:25:29;101010.38;;;17.27;100.00
59588;BME280;45412;54.472;18.464;2023-09-07T04:28:16;101011.42;;;17.29;100.00
59588;BME280;45412;54.472;18.464;2023-09-07T04:31:06;101014.85;;;17.31;100.00
59588;BME280;45412;54.472;18.464;2023-09-07T04:33:53;101016.44;;;17.33;100.00
59588;BME280;45412;54.472;18.464;2023-09-07T04:36:39;101015.95;;;17.34;100.00
59588;BME280;45412;54.472;18.464;2023-09-07T04:39:25;101018.91;;;17.35;100.00
59588;BME280;45412;54.472;18.464;2023-09-07T04:42:12;101019.08;;;17.35;100.00
59588;BME280;45412;54.472;18.464;2023-09-07T04:44:59;101024.73;;;17.36;100.00
59588;BME280;45412;54.472;18.464;2023-09-07T04:47:45;101027.23;;;17.39;100.00
59588;BME280;45412;54.472;18.464;2023-09-07T04:50:32;101028.88;;;17.42;100.00
59588;BME280;45412;54.472;18.464;2023-09-07T04:53:18;101023.55;;;17.46;100.00
59588;BME280;45412;54.472;18.464;2023-09-07T04:56:06;101026.05;;;17.48;100.00
59588;BME280;45412;54.472;18.464;2023-09-07T04:58:54;101029.90;;;17.49;100.00
59588;BME280;45412;54.472;18.464;2023-09-07T05:01:40;101031.13;;;17.51;100.00
59588;BME280;45412;54.472;18.464;2023-09-07T05:04:27;101031.55;;;17.52;100.00
59588;BME280;45412;54.472;18.464;2023-09-07T05:07:14;101033.81;;;17.55;100.00
59588;BME280;45412;54.472;18.464;2023-09-07T05:10:00;101033.90;;;17.56;100.00
59588;BME280;45412;54.472;18.464;2023-09-07T05:12:46;101034.58;;;17.57;100.00
59588;BME280;45412;54.472;18.464;2023-09-07T05:15:33;101039.20;;;17.59;100.00
59588;BME280;45412;54.472;18.464;2023-09-07T05:18:21;101045.40;;;17.62;100.00
59588;BME280;45412;54.472;18.464;2023-09-07T05:21:14;101047.74;;;17.65;100.00
59588;BME280;45412;54.472;18.464;2023-09-07T05:24:01;101047.18;;;17.66;100.00
59588;BME280;45412;54.472;18.464;2023-09-07T05:26:49;101051.08;;;17.68;100.00
59588;BME280;45412;54.472;18.464;2023-09-07T05:29:35;101050.89;;;17.72;100.00
59588;BME280;45412;54.472;18.464;2023-09-07T05:32:22;101049.56;;;17.79;100.00
59588;BME280;45412;54.472;18.464;2023-09-07T05:35:08;101046.70;;;17.83;100.00
59588;BME280;45412;54.472;18.464;2023-09-07T05:37:56;101049.33;;;17.87;100.00
59588;BME280;45412;54.472;18.464;2023-09-07T05:40:44;101055.02;;;17.92;100.00
59588;BME280;45412;54.472;18.464;2023-09-07T05:43:31;101050.69;;;17.94;100.00
59588;BME280;45412;54.472;18.464;2023-09-07T05:46:18;101052.52;;;17.96;100.00
59588;BME280;45412;54.472;18.464;2023-09-07T05:49:04;101060.27;;;18.00;100.00
59588;BME280;45412;54.472;18.464;2023-09-07T05:51:50;101056.20;;;18.05;100.00
59588;BME280;45412;54.472;18.464;2023-09-07T05:54:37;101058.17;;;18.10;100.00
59588;BME280;45412;54.472;18.464;2023-09-07T05:57:24;101055.19;;;18.15;100.00
59588;BME280;45412;54.472;18.464;2023-09-07T06:00:12;101056.83;;;18.21;100.00
59588;BME280;45412;54.472;18.464;2023-09-07T06:03:02;101056.33;;;18.28;100.00
59588;BME280;45412;54.472;18.464;2023-09-07T06:05:49;101062.94;;;18.34;100.00
59588;BME280;45412;54.472;18.464;2023-09-07T06:08:36;101059.22;;;18.40;100.00
59588;BME280;45412;54.472;18.464;2023-09-07T06:11:22;101058.05;;;18.44;100.00
59588;BME280;45412;54.472;18.464;2023-09-07T06:14:09;101063.09;;;18.50;100.00
59588;BME280;45412;54.472;18.464;2023-09-07T06:16:56;101067.16;;;18.58;100.00
59588;BME280;45412;54.472;18.464;2023-09-07T06:19:42;101066.10;;;18.67;100.00
59588;BME280;45412;54.472;18.464;2023-09-07T06:22:29;101069.23;;;18.74;100.00
59588;BME280;45412;54.472;18.464;2023-09-07T06:25:16;101067.98;;;18.80;99.61
59588;BME280;45412;54.472;18.464;2023-09-07T06:28:03;101065.95;;;18.85;98.95
59588;BME280;45412;54.472;18.464;2023-09-07T06:30:50;101063.47;;;18.87;98.22
59588;BME280;45412;54.472;18.464;2023-09-07T06:33:37;101065.34;;;18.92;98.56
59588;BME280;45412;54.472;18.464;2023-09-07T06:36:24;101070.67;;;18.98;98.35
59588;BME280;45412;54.472;18.464;2023-09-07T06:39:30;101073.89;;;19.08;97.89
59588;BME280;45412;54.472;18.464;2023-09-07T06:42:16;101080.40;;;19.19;97.60
59588;BME280;45412;54.472;18.464;2023-09-07T06:45:06;101083.56;;;19.34;96.98
59588;BME280;45412;54.472;18.464;2023-09-07T06:47:53;101085.92;;;19.43;95.18
59588;BME280;45412;54.472;18.464;2023-09-07T06:50:42;101087.67;;;19.52;94.56
59588;BME280;45412;54.472;18.464;2023-09-07T06:53:28;101086.66;;;19.64;93.89
59588;BME280;45412;54.472;18.464;2023-09-07T06:56:35;101087.31;;;19.74;93.17
59588;BME280;45412;54.472;18.464;2023-09-07T06:59:21;101088.27;;;19.87;92.02
59588;BME280;45412;54.472;18.464;2023-09-07T07:02:07;101090.90;;;20.18;91.23
59588;BME280;45412;54.472;18.464;2023-09-07T07:04:54;101090.39;;;20.45;89.03
59588;BME280;45412;54.472;18.464;2023-09-07T07:07:40;101094.95;;;20.76;87.55
59588;BME280;45412;54.472;18.464;2023-09-07T07:10:27;101094.70;;;20.93;86.17
59588;BME280;45412;54.472;18.464;2023-09-07T07:13:14;101098.05;;;21.02;85.69
59588;BME280;45412;54.472;18.464;2023-09-07T07:16:00;101093.65;;;21.16;84.96
59588;BME280;45412;54.472;18.464;2023-09-07T07:18:47;101094.81;;;21.48;84.49
59588;BME280;45412;54.472;18.464;2023-09-07T07:21:34;101094.06;;;21.73;82.59
59588;BME280;45412;54.472;18.464;2023-09-07T07:24:21;101091.21;;;21.83;81.29
59588;BME280;45412;54.472;18.464;2023-09-07T07:27:07;101093.80;;;21.81;80.28
59588;BME280;45412;54.472;18.464;2023-09-07T07:29:55;101096.69;;;21.84;80.73
59588;BME280;45412;54.472;18.464;2023-09-07T07:32:41;101104.63;;;22.04;80.31
59588;BME280;45412;54.472;18.464;2023-09-07T07:35:27;101108.17;;;22.34;78.52
59588;BME280;45412;54.472;18.464;2023-09-07T07:38:14;101107.66;;;22.94;76.95
59588;BME280;45412;54.472;18.464;2023-09-07T07:41:02;101108.48;;;23.22;74.29
59588;BME280;45412;54.472;18.464;2023-09-07T07:43:50;101099.54;;;24.66;70.96
59588;BME280;45412;54.472;18.464;2023-09-07T07:46:36;101103.73;;;24.82;67.19
59588;BME280;45412;54.472;18.464;2023-09-07T07:49:22;101106.22;;;25.02;65.48
59588;BME280;45412;54.472;18.464;2023-09-07T07:52:09;101104.22;;;25.49;65.52
59588;BME280;45412;54.472;18.464;2023-09-07T07:54:56;101097.60;;;26.08;63.16
59588;BME280;45412;54.472;18.464;2023-09-07T07:57:43;101109.42;;;26.28;61.80
59588;BME280;45412;54.472;18.464;2023-09-07T08:00:30;101105.71;;;27.37;59.33
59588;BME280;45412;54.472;18.464;2023-09-07T08:03:17;101101.34;;;28.74;55.18
59588;BME280;45412;54.472;18.464;2023-09-07T08:06:04;101101.68;;;29.91;50.33
59588;BME280;45412;54.472;18.464;2023-09-07T08:08:50;101099.11;;;30.94;46.45
59588;BME280;45412;54.472;18.464;2023-09-07T08:11:38;101105.37;;;31.83;44.14
59588;BME280;45412;54.472;18.464;2023-09-07T08:14:26;101097.02;;;32.52;41.57
59588;BME280;45412;54.472;18.464;2023-09-07T08:17:16;101098.57;;;33.18;40.10
59588;BME280;45412;54.472;18.464;2023-09-07T08:20:02;101098.84;;;33.73;38.97
59588;BME280;45412;54.472;18.464;2023-09-07T08:22:49;101094.71;;;34.37;37.38
59588;BME280;45412;54.472;18.464;2023-09-07T08:25:36;101094.55;;;34.94;35.95
59588;BME280;45412;54.472;18.464;2023-09-07T08:28:22;101098.28;;;35.37;34.85
59588;BME280;45412;54.472;18.464;2023-09-07T08:31:08;101100.05;;;35.61;34.13
59588;BME280;45412;54.472;18.464;2023-09-07T08:33:56;101098.77;;;35.93;33.52
59588;BME280;45412;54.472;18.464;2023-09-07T08:36:43;101093.83;;;36.05;32.44
59588;BME280;45412;54.472;18.464;2023-09-07T08:39:29;101093.91;;;36.32;32.54
59588;BME280;45412;54.472;18.464;2023-09-07T08:42:17;101088.90;;;36.47;31.79
59588;BME280;45412;54.472;18.464;2023-09-07T08:45:05;101086.83;;;36.63;31.26
59588;BME280;45412;54.472;18.464;2023-09-07T08:47:54;101086.48;;;36.78;30.90
59588;BME280;45412;54.472;18.464;2023-09-07T08:50:41;101086.79;;;36.74;30.51
59588;BME280;45412;54.472;18.464;2023-09-07T08:53:30;101088.27;;;36.94;30.74
59588;BME280;45412;54.472;18.464;2023-09-07T08:56:17;101091.13;;;37.07;29.85
59588;BME280;45412;54.472;18.464;2023-09-07T08:59:04;101096.98;;;37.16;29.79
59588;BME280;45412;54.472;18.464;2023-09-07T09:01:57;101098.16;;;37.23;29.78
59588;BME280;45412;54.472;18.464;2023-09-07T09:04:44;101093.05;;;37.29;29.40
59588;BME280;45412;54.472;18.464;2023-09-07T09:07:30;101091.63;;;37.39;29.71
59588;BME280;45412;54.472;18.464;2023-09-07T09:10:17;101092.02;;;37.55;29.19
59588;BME280;45412;54.472;18.464;2023-09-07T09:13:04;101091.16;;;37.66;28.69
59588;BME280;45412;54.472;18.464;2023-09-07T09:15:50;101083.88;;;37.61;28.63
59588;BME280;45412;54.472;18.464;2023-09-07T09:18:37;101084.49;;;37.52;28.68
59588;BME280;45412;54.472;18.464;2023-09-07T09:21:26;101084.07;;;37.34;28.64
59588;BME280;45412;54.472;18.464;2023-09-07T09:24:12;101082.45;;;37.38;28.48
59588;BME280;45412;54.472;18.464;2023-09-07T09:27:01;101078.59;;;37.43;28.59
59588;BME280;45412;54.472;18.464;2023-09-07T09:29:49;101076.77;;;37.46;28.37
59588;BME280;45412;54.472;18.464;2023-09-07T09:32:36;101077.77;;;37.47;28.23
59588;BME280;45412;54.472;18.464;2023-09-07T09:35:22;101075.05;;;37.47;28.39
59588;BME280;45412;54.472;18.464;2023-09-07T09:38:09;101070.44;;;37.54;28.24
59588;BME280;45412;54.472;18.464;2023-09-07T09:40:56;101064.22;;;37.56;28.23
59588;BME280;45412;54.472;18.464;2023-09-07T09:43:42;101067.05;;;37.51;28.05
59588;BME280;45412;54.472;18.464;2023-09-07T09:46:32;101065.45;;;37.50;27.84
59588;BME280;45412;54.472;18.464;2023-09-07T09:49:20;101072.11;;;37.66;27.94
59588;BME280;45412;54.472;18.464;2023-09-07T09:52:08;101069.75;;;37.78;27.70
59588;BME280;45412;54.472;18.464;2023-09-07T09:54:55;101070.08;;;38.00;27.37
59588;BME280;45412;54.472;18.464;2023-09-07T09:57:42;101065.71;;;38.24;27.11
59588;BME280;45412;54.472;18.464;2023-09-07T10:00:29;101067.47;;;38.34;26.77
59588;BME280;45412;54.472;18.464;2023-09-07T10:03:31;101069.66;;;38.29;26.66
59588;BME280;45412;54.472;18.464;2023-09-07T10:06:28;101072.62;;;38.39;26.84
59588;BME280;45412;54.472;18.464;2023-09-07T10:09:15;101071.55;;;38.45;26.40
59588;BME280;45412;54.472;18.464;2023-09-07T10:12:05;101073.77;;;38.59;26.21
59588;BME280;45412;54.472;18.464;2023-09-07T10:14:54;101069.65;;;38.69;26.13
59588;BME280;45412;54.472;18.464;2023-09-07T10:17:41;101065.52;;;38.74;26.15
59588;BME280;45412;54.472;18.464;2023-09-07T10:20:28;101062.66;;;38.79;26.11
59588;BME280;45412;54.472;18.464;2023-09-07T10:23:14;101054.95;;;38.87;25.96
59588;BME280;45412;54.472;18.464;2023-09-07T10:26:03;101058.77;;;38.79;25.80
59588;BME280;45412;54.472;18.464;2023-09-07T10:29:00;101057.30;;;38.48;26.20
59588;BME280;45412;54.472;18.464;2023-09-07T10:31:52;101059.82;;;38.22;26.58
59588;BME280;45412;54.472;18.464;2023-09-07T10:34:40;101058.19;;;37.83;26.57
59588;BME280;45412;54.472;18.464;2023-09-07T10:37:29;101049.08;;;37.53;27.17
59588;BME280;45412;54.472;18.464;2023-09-07T10:40:22;101044.66;;;37.12;27.53
59588;BME280;45412;54.472;18.464;2023-09-07T10:43:08;101046.27;;;36.77;27.85
59588;BME280;45412;54.472;18.464;2023-09-07T10:45:56;101045.00;;;36.57;28.09
59588;BME280;45412;54.472;18.464;2023-09-07T10:48:42;101042.42;;;36.30;28.42
59588;BME280;45412;54.472;18.464;2023-09-07T10:51:29;101044.65;;;36.40;28.78
59588;BME280;45412;54.472;18.464;2023-09-07T10:54:22;101042.59;;;36.64;28.63
59588;BME280;45412;54.472;18.464;2023-09-07T10:57:11;101037.58;;;36.81;28.50
59588;BME280;45412;54.472;18.464;2023-09-07T10:59:59;101042.38;;;36.75;28.06
59588;BME280;45412;54.472;18.464;2023-09-07T11:02:45;101040.42;;;36.60;28.48
59588;BME280;45412;54.472;18.464;2023-09-07T11:05:32;101042.48;;;36.51;28.64
59588;BME280;45412;54.472;18.464;2023-09-07T11:08:19;101044.77;;;36.26;28.73
59588;BME280;45412;54.472;18.464;2023-09-07T11:11:06;101047.94;;;36.18;29.10
59588;BME280;45412;54.472;18.464;2023-09-07T11:13:53;101048.52;;;36.08;28.93
59588;BME280;45412;54.472;18.464;2023-09-07T11:16:41;101049.64;;;35.93;29.34
59588;BME280;45412;54.472;18.464;2023-09-07T11:19:27;101052.12;;;35.60;29.57
59588;BME280;45412;54.472;18.464;2023-09-07T11:22:13;101053.35;;;35.24;30.08
59588;BME280;45412;54.472;18.464;2023-09-07T11:25:01;101050.23;;;34.96;30.24
59588;BME280;45412;54.472;18.464;2023-09-07T11:27:49;101042.30;;;34.67;30.75
59588;BME280;45412;54.472;18.464;2023-09-07T11:30:49;101037.31;;;34.41;31.96
59588;BME280;45412;54.472;18.464;2023-09-07T11:33:37;101040.56;;;34.15;32.39
59588;BME280;45412;54.472;18.464;2023-09-07T11:36:25;101040.80;;;33.97;32.62
59588;BME280;45412;54.472;18.464;2023-09-07T11:39:12;101038.52;;;33.85;32.62
59588;BME280;45412;54.472;18.464;2023-09-07T11:41:58;101035.50;;;33.62;32.59
59588;BME280;45412;54.472;18.464;2023-09-07T11:44:44;101038.40;;;33.37;33.35
59588;BME280;45412;54.472;18.464;2023-09-07T11:47:31;101043.20;;;33.10;33.78
59588;BME280;45412;54.472;18.464;2023-09-07T11:50:17;101037.01;;;32.72;34.40
59588;BME280;45412;54.472;18.464;2023-09-07T11:53:05;101034.62;;;32.34;35.27
59588;BME280;45412;54.472;18.464;2023-09-07T11:55:51;101037.11;;;31.88;35.55
59588;BME280;45412;54.472;18.464;2023-09-07T11:58:37;101032.27;;;31.47;35.81
59588;BME280;45412;54.472;18.464;2023-09-07T12:01:24;101030.20;;;31.05;36.67
59588;BME280;45412;54.472;18.464;2023-09-07T12:04:10;101028.84;;;30.92;37.43
59588;BME280;45412;54.472;18.464;2023-09-07T12:06:57;101033.48;;;30.77;38.00
59588;BME280;45412;54.472;18.464;2023-09-07T12:09:43;101031.55;;;30.41;38.30
59588;BME280;45412;54.472;18.464;2023-09-07T12:12:29;101027.75;;;29.92;39.82
59588;BME280;45412;54.472;18.464;2023-09-07T12:15:23;101029.75;;;29.53;41.23
59588;BME280;45412;54.472;18.464;2023-09-07T12:18:10;101034.15;;;29.16;42.11
59588;BME280;45412;54.472;18.464;2023-09-07T12:20:56;101035.04;;;28.80;42.80
59588;BME280;45412;54.472;18.464;2023-09-07T12:23:42;101026.43;;;28.33;44.01
59588;BME280;45412;54.472;18.464;2023-09-07T12:26:29;101026.67;;;27.95;45.30
59588;BME280;45412;54.472;18.464;2023-09-07T12:29:16;101029.05;;;27.51;46.27
59588;BME280;45412;54.472;18.464;2023-09-07T12:32:04;101030.00;;;27.15;47.70
59588;BME280;45412;54.472;18.464;2023-09-07T12:34:53;101035.01;;;26.77;49.01
59588;BME280;45412;54.472;18.464;2023-09-07T12:37:39;101033.40;;;26.47;50.11
59588;BME280;45412;54.472;18.464;2023-09-07T12:40:26;101034.01;;;26.23;50.88
59588;BME280;45412;54.472;18.464;2023-09-07T12:43:12;101027.75;;;25.95;51.77
59588;BME280;45412;54.472;18.464;2023-09-07T12:45:59;101028.50;;;25.76;53.18
59588;BME280;45412;54.472;18.464;2023-09-07T12:48:46;101030.27;;;25.54;53.64
59588;BME280;45412;54.472;18.464;2023-09-07T12:51:32;101032.04;;;25.28;54.50
59588;BME280;45412;54.472;18.464;2023-09-07T12:54:19;101033.17;;;25.10;55.43
59588;BME280;45412;54.472;18.464;2023-09-07T12:57:05;101028.65;;;24.96;56.02
59588;BME280;45412;54.472;18.464;2023-09-07T12:59:52;101024.55;;;24.86;56.44
59588;BME280;45412;54.472;18.464;2023-09-07T13:02:38;101023.80;;;24.74;57.32
59588;BME280;45412;54.472;18.464;2023-09-07T13:05:25;101019.79;;;24.67;58.01
59588;BME280;45412;54.472;18.464;2023-09-07T13:08:12;101014.20;;;24.56;57.97
59588;BME280;45412;54.472;18.464;2023-09-07T13:10:58;101008.67;;;24.52;58.51
59588;BME280;45412;54.472;18.464;2023-09-07T13:13:44;101009.88;;;24.48;59.15
59588;BME280;45412;54.472;18.464;2023-09-07T13:16:30;101005.60;;;24.41;59.99
59588;BME280;45412;54.472;18.464;2023-09-07T13:19:18;101002.20;;;24.37;60.02
59588;BME280;45412;54.472;18.464;2023-09-07T13:22:04;101009.10;;;24.29;59.97
59588;BME280;45412;54.472;18.464;2023-09-07T13:24:52;101008.58;;;24.15;59.71
59588;BME280;45412;54.472;18.464;2023-09-07T13:27:38;101012.00;;;24.02;60.44
59588;BME280;45412;54.472;18.464;2023-09-07T13:30:25;101015.34;;;23.80;60.69
59588;BME280;45412;54.472;18.464;2023-09-07T13:33:11;101014.02;;;23.68;61.03
59588;BME280;45412;54.472;18.464;2023-09-07T13:36:00;101010.91;;;23.61;61.46
59588;BME280;45412;54.472;18.464;2023-09-07T13:38:46;101009.46;;;23.56;61.86
59588;BME280;45412;54.472;18.464;2023-09-07T13:41:33;101006.16;;;23.52;62.48
59588;BME280;45412;54.472;18.464;2023-09-07T13:44:19;101006.75;;;23.47;62.48
59588;BME280;45412;54.472;18.464;2023-09-07T13:47:06;101010.67;;;23.44;62.25
59588;BME280;45412;54.472;18.464;2023-09-07T13:49:52;101007.95;;;23.39;61.80
59588;BME280;45412;54.472;18.464;2023-09-07T13:52:39;101007.39;;;23.43;61.92
59588;BME280;45412;54.472;18.464;2023-09-07T13:55:25;101003.50;;;23.45;61.99
59588;BME280;45412;54.472;18.464;2023-09-07T13:58:12;101001.37;;;23.45;62.18
59588;BME280;45412;54.472;18.464;2023-09-07T14:00:58;100996.41;;;23.45;61.90
59588;BME280;45412;54.472;18.464;2023-09-07T14:03:45;100986.52;;;23.44;62.43
59588;BME280;45412;54.472;18.464;2023-09-07T14:06:32;100989.23;;;23.43;62.32
59588;BME280;45412;54.472;18.464;2023-09-07T14:09:18;100986.52;;;23.37;62.30
59588;BME280;45412;54.472;18.464;2023-09-07T14:12:05;100982.43;;;23.35;62.20
59588;BME280;45412;54.472;18.464;2023-09-07T14:14:51;100979.95;;;23.33;62.32
59588;BME280;45412;54.472;18.464;2023-09-07T14:17:37;100980.83;;;23.27;62.81